sensor_id;sensor_type;location;lat;lon;timestamp;temperature;humidity
28336;DHT22;15592;53.656;7.276;2022-11-15T00:01:41;7.20;99.90
28336;DHT22;15592;53.656;7.276;2022-11-15T00:04:07;7.20;99.90
28336;DHT22;15592;53.656;7.276;2022-11-15T00:06:32;7.20;99.90
28336;DHT22;15592;53.656;7.276;2022-11-15T00:08:59;7.20;99.90
28336;DHT22;15592;53.656;7.276;2022-11-15T00:11:25;7.20;99.90
28336;DHT22;15592;53.656;7.276;2022-11-15T00:13:50;7.20;99.90
28336;DHT22;15592;53.656;7.276;2022-11-15T00:16:16;7.20;99.90
28336;DHT22;15592;53.656;7.276;2022-11-15T00:18:42;7.20;99.90
28336;DHT22;15592;53.656;7.276;2022-11-15T00:21:10;7.20;99.90
28336;DHT22;15592;53.656;7.276;2022-11-15T00:23:36;7.20;99.90
28336;DHT22;15592;53.656;7.276;2022-11-15T00:26:03;7.20;99.90
28336;DHT22;15592;53.656;7.276;2022-11-15T00:28:29;7.30;99.90
28336;DHT22;15592;53.656;7.276;2022-11-15T00:31:00;7.30;99.90
28336;DHT22;15592;53.656;7.276;2022-11-15T00:33:27;7.20;99.90
28336;DHT22;15592;53.656;7.276;2022-11-15T00:35:52;7.30;99.90
28336;DHT22;15592;53.656;7.276;2022-11-15T00:38:18;7.20;99.90
28336;DHT22;15592;53.656;7.276;2022-11-15T00:40:43;7.20;99.90
28336;DHT22;15592;53.656;7.276;2022-11-15T00:43:09;7.20;99.90
28336;DHT22;15592;53.656;7.276;2022-11-15T00:45:35;7.20;99.90
28336;DHT22;15592;53.656;7.276;2022-11-15T00:48:00;7.20;99.90
28336;DHT22;15592;53.656;7.276;2022-11-15T00:50:26;7.20;99.90
28336;DHT22;15592;53.656;7.276;2022-11-15T00:52:51;7.20;99.90
28336;DHT22;15592;53.656;7.276;2022-11-15T00:55:18;7.20;99.90
28336;DHT22;15592;53.656;7.276;2022-11-15T00:57:45;7.10;99.90
28336;DHT22;15592;53.656;7.276;2022-11-15T01:00:11;7.10;99.90
28336;DHT22;15592;53.656;7.276;2022-11-15T01:02:37;7.10;99.90
28336;DHT22;15592;53.656;7.276;2022-11-15T01:05:03;7.00;99.90
28336;DHT22;15592;53.656;7.276;2022-11-15T01:07:29;7.00;99.90
28336;DHT22;15592;53.656;7.276;2022-11-15T01:09:55;7.00;99.90
28336;DHT22;15592;53.656;7.276;2022-11-15T01:12:20;6.90;99.90
28336;DHT22;15592;53.656;7.276;2022-11-15T01:14:46;6.90;99.90
28336;DHT22;15592;53.656;7.276;2022-11-15T01:17:11;6.90;99.90
28336;DHT22;15592;53.656;7.276;2022-11-15T01:19:37;6.80;99.90
28336;DHT22;15592;53.656;7.276;2022-11-15T01:22:03;6.90;99.90
28336;DHT22;15592;53.656;7.276;2022-11-15T01:24:28;6.80;99.90
28336;DHT22;15592;53.656;7.276;2022-11-15T01:26:54;6.80;99.90
28336;DHT22;15592;53.656;7.276;2022-11-15T01:29:19;6.70;99.90
28336;DHT22;15592;53.656;7.276;2022-11-15T01:31:45;6.70;99.90
28336;DHT22;15592;53.656;7.276;2022-11-15T01:34:10;6.60;99.90
28336;DHT22;15592;53.656;7.276;2022-11-15T01:36:36;6.50;99.90
28336;DHT22;15592;53.656;7.276;2022-11-15T01:39:02;6.40;99.90
28336;DHT22;15592;53.656;7.276;2022-11-15T01:41:31;6.30;99.90
28336;DHT22;15592;53.656;7.276;2022-11-15T01:47:05;6.20;99.90
28336;DHT22;15592;53.656;7.276;2022-11-15T01:49:34;6.00;99.90
28336;DHT22;15592;53.656;7.276;2022-11-15T01:52:01;6.00;99.90
28336;DHT22;15592;53.656;7.276;2022-11-15T01:54:28;6.00;99.90
28336;DHT22;15592;53.656;7.276;2022-11-15T01:59:23;5.90;99.90
28336;DHT22;15592;53.656;7.276;2022-11-15T02:01:49;6.00;99.90
28336;DHT22;15592;53.656;7.276;2022-11-15T02:06:53;5.90;99.90
28336;DHT22;15592;53.656;7.276;2022-11-15T02:09:18;5.80;99.90
28336;DHT22;15592;53.656;7.276;2022-11-15T02:11:45;5.80;99.90
28336;DHT22;15592;53.656;7.276;2022-11-15T02:14:13;5.80;99.90
28336;DHT22;15592;53.656;7.276;2022-11-15T02:16:53;5.70;99.90
28336;DHT22;15592;53.656;7.276;2022-11-15T02:22:05;5.60;99.90
28336;DHT22;15592;53.656;7.276;2022-11-15T02:27:59;5.50;99.90
28336;DHT22;15592;53.656;7.276;2022-11-15T02:30:55;5.40;99.90
28336;DHT22;15592;53.656;7.276;2022-11-15T02:36:34;5.40;99.90
28336;DHT22;15592;53.656;7.276;2022-11-15T02:42:14;5.40;99.90
28336;DHT22;15592;53.656;7.276;2022-11-15T02:45:03;5.50;99.90
28336;DHT22;15592;53.656;7.276;2022-11-15T02:47:32;5.40;99.90
28336;DHT22;15592;53.656;7.276;2022-11-15T02:50:12;5.40;99.90
28336;DHT22;15592;53.656;7.276;2022-11-15T02:52:38;5.40;99.90
28336;DHT22;15592;53.656;7.276;2022-11-15T02:55:04;5.40;99.90
28336;DHT22;15592;53.656;7.276;2022-11-15T02:57:43;5.40;99.90
28336;DHT22;15592;53.656;7.276;2022-11-15T03:00:13;5.30;99.90
28336;DHT22;15592;53.656;7.276;2022-11-15T03:03:05;5.30;99.90
28336;DHT22;15592;53.656;7.276;2022-11-15T03:08:37;5.20;99.90
28336;DHT22;15592;53.656;7.276;2022-11-15T03:11:11;5.20;99.90
28336;DHT22;15592;53.656;7.276;2022-11-15T03:16:09;5.30;99.90
28336;DHT22;15592;53.656;7.276;2022-11-15T03:18:47;5.30;99.90
28336;DHT22;15592;53.656;7.276;2022-11-15T03:21:16;5.40;99.90
28336;DHT22;15592;53.656;7.276;2022-11-15T03:23:44;5.50;99.90
28336;DHT22;15592;53.656;7.276;2022-11-15T03:26:14;5.50;99.90
28336;DHT22;15592;53.656;7.276;2022-11-15T03:28:46;5.60;99.90
28336;DHT22;15592;53.656;7.276;2022-11-15T03:31:16;5.70;99.90
28336;DHT22;15592;53.656;7.276;2022-11-15T03:34:04;5.80;99.90
28336;DHT22;15592;53.656;7.276;2022-11-15T03:36:33;5.80;99.90
28336;DHT22;15592;53.656;7.276;2022-11-15T03:39:02;5.90;99.90
28336;DHT22;15592;53.656;7.276;2022-11-15T03:41:40;5.90;99.90
28336;DHT22;15592;53.656;7.276;2022-11-15T03:46:41;6.00;99.90
28336;DHT22;15592;53.656;7.276;2022-11-15T03:49:31;6.00;99.90
28336;DHT22;15592;53.656;7.276;2022-11-15T03:51:58;6.10;99.90
28336;DHT22;15592;53.656;7.276;2022-11-15T03:54:24;6.10;99.90
28336;DHT22;15592;53.656;7.276;2022-11-15T03:56:50;6.20;99.90
28336;DHT22;15592;53.656;7.276;2022-11-15T03:59:15;6.20;99.90
28336;DHT22;15592;53.656;7.276;2022-11-15T04:01:41;6.30;99.90
28336;DHT22;15592;53.656;7.276;2022-11-15T04:04:07;6.30;99.90
28336;DHT22;15592;53.656;7.276;2022-11-15T04:06:32;6.40;99.90
28336;DHT22;15592;53.656;7.276;2022-11-15T04:08:58;6.50;99.90
28336;DHT22;15592;53.656;7.276;2022-11-15T04:11:23;6.50;99.90
28336;DHT22;15592;53.656;7.276;2022-11-15T04:13:49;6.50;99.90
28336;DHT22;15592;53.656;7.276;2022-11-15T04:16:15;6.50;99.90
28336;DHT22;15592;53.656;7.276;2022-11-15T04:18:40;6.60;99.90
28336;DHT22;15592;53.656;7.276;2022-11-15T04:21:07;6.60;99.90
28336;DHT22;15592;53.656;7.276;2022-11-15T04:23:52;6.60;99.90
28336;DHT22;15592;53.656;7.276;2022-11-15T04:26:29;6.70;99.90
28336;DHT22;15592;53.656;7.276;2022-11-15T04:28:55;6.70;99.90
28336;DHT22;15592;53.656;7.276;2022-11-15T04:31:59;6.70;99.90
28336;DHT22;15592;53.656;7.276;2022-11-15T04:34:25;6.70;99.90
28336;DHT22;15592;53.656;7.276;2022-11-15T04:36:50;6.70;99.90
28336;DHT22;15592;53.656;7.276;2022-11-15T04:39:34;6.80;99.90
28336;DHT22;15592;53.656;7.276;2022-11-15T04:42:00;6.80;99.90
28336;DHT22;15592;53.656;7.276;2022-11-15T04:44:26;6.90;99.90
28336;DHT22;15592;53.656;7.276;2022-11-15T04:46:51;6.90;99.90
28336;DHT22;15592;53.656;7.276;2022-11-15T04:49:17;6.90;99.90
28336;DHT22;15592;53.656;7.276;2022-11-15T04:51:43;6.90;99.90
28336;DHT22;15592;53.656;7.276;2022-11-15T04:54:08;6.90;99.90
28336;DHT22;15592;53.656;7.276;2022-11-15T04:56:34;7.00;99.90
28336;DHT22;15592;53.656;7.276;2022-11-15T04:58:59;7.00;99.90
28336;DHT22;15592;53.656;7.276;2022-11-15T05:01:25;7.00;99.90
28336;DHT22;15592;53.656;7.276;2022-11-15T05:03:51;7.00;99.90
28336;DHT22;15592;53.656;7.276;2022-11-15T05:06:35;7.10;99.90
28336;DHT22;15592;53.656;7.276;2022-11-15T05:09:00;7.10;99.90
28336;DHT22;15592;53.656;7.276;2022-11-15T05:11:26;7.10;99.90
28336;DHT22;15592;53.656;7.276;2022-11-15T05:13:52;7.10;99.90
28336;DHT22;15592;53.656;7.276;2022-11-15T05:16:18;7.20;99.90
28336;DHT22;15592;53.656;7.276;2022-11-15T05:18:44;7.20;99.90
28336;DHT22;15592;53.656;7.276;2022-11-15T05:21:12;7.20;99.90
28336;DHT22;15592;53.656;7.276;2022-11-15T05:23:39;7.20;99.90
28336;DHT22;15592;53.656;7.276;2022-11-15T05:26:06;7.20;99.90
28336;DHT22;15592;53.656;7.276;2022-11-15T05:28:32;7.30;99.90
28336;DHT22;15592;53.656;7.276;2022-11-15T05:31:02;7.30;99.90
28336;DHT22;15592;53.656;7.276;2022-11-15T05:33:28;7.30;99.90
28336;DHT22;15592;53.656;7.276;2022-11-15T05:36:22;7.30;99.90
28336;DHT22;15592;53.656;7.276;2022-11-15T05:38:47;7.30;99.90
28336;DHT22;15592;53.656;7.276;2022-11-15T05:41:14;7.30;99.90
28336;DHT22;15592;53.656;7.276;2022-11-15T05:43:41;7.40;99.90
28336;DHT22;15592;53.656;7.276;2022-11-15T05:46:07;7.40;99.90
28336;DHT22;15592;53.656;7.276;2022-11-15T05:48:39;7.40;99.90
28336;DHT22;15592;53.656;7.276;2022-11-15T05:51:07;7.40;99.90
28336;DHT22;15592;53.656;7.276;2022-11-15T05:53:33;7.40;99.90
28336;DHT22;15592;53.656;7.276;2022-11-15T05:56:31;7.40;99.90
28336;DHT22;15592;53.656;7.276;2022-11-15T06:02:32;7.50;99.90
28336;DHT22;15592;53.656;7.276;2022-11-15T06:05:07;7.50;99.90
28336;DHT22;15592;53.656;7.276;2022-11-15T06:10:53;7.50;99.90
28336;DHT22;15592;53.656;7.276;2022-11-15T06:13:19;7.60;99.90
28336;DHT22;15592;53.656;7.276;2022-11-15T06:15:47;7.60;99.90
28336;DHT22;15592;53.656;7.276;2022-11-15T06:18:12;7.60;99.90
28336;DHT22;15592;53.656;7.276;2022-11-15T06:20:38;7.60;99.90
28336;DHT22;15592;53.656;7.276;2022-11-15T06:23:04;7.60;99.90
28336;DHT22;15592;53.656;7.276;2022-11-15T06:26:10;7.70;99.90
28336;DHT22;15592;53.656;7.276;2022-11-15T06:29:17;7.70;99.90
28336;DHT22;15592;53.656;7.276;2022-11-15T06:31:45;7.70;99.90
28336;DHT22;15592;53.656;7.276;2022-11-15T06:38:15;7.80;99.90
28336;DHT22;15592;53.656;7.276;2022-11-15T06:40:41;7.90;99.90
28336;DHT22;15592;53.656;7.276;2022-11-15T06:43:06;7.90;99.90
28336;DHT22;15592;53.656;7.276;2022-11-15T06:45:33;7.90;99.90
28336;DHT22;15592;53.656;7.276;2022-11-15T06:47:58;8.00;99.90
28336;DHT22;15592;53.656;7.276;2022-11-15T06:50:24;8.00;99.90
28336;DHT22;15592;53.656;7.276;2022-11-15T06:52:50;8.00;99.90
28336;DHT22;15592;53.656;7.276;2022-11-15T06:55:16;8.00;99.90
28336;DHT22;15592;53.656;7.276;2022-11-15T06:57:49;8.00;99.90
28336;DHT22;15592;53.656;7.276;2022-11-15T07:00:16;8.10;99.90
28336;DHT22;15592;53.656;7.276;2022-11-15T07:02:42;8.10;99.90
28336;DHT22;15592;53.656;7.276;2022-11-15T07:05:11;8.10;99.90
28336;DHT22;15592;53.656;7.276;2022-11-15T07:07:37;8.20;99.90
28336;DHT22;15592;53.656;7.276;2022-11-15T07:10:04;8.20;99.90
28336;DHT22;15592;53.656;7.276;2022-11-15T07:12:33;8.20;99.90
28336;DHT22;15592;53.656;7.276;2022-11-15T07:18:44;8.20;99.90
28336;DHT22;15592;53.656;7.276;2022-11-15T07:21:10;8.20;99.90
28336;DHT22;15592;53.656;7.276;2022-11-15T07:23:39;8.30;99.90
28336;DHT22;15592;53.656;7.276;2022-11-15T07:26:06;8.30;99.90
28336;DHT22;15592;53.656;7.276;2022-11-15T07:28:32;8.30;99.90
28336;DHT22;15592;53.656;7.276;2022-11-15T07:30:57;8.30;99.90
28336;DHT22;15592;53.656;7.276;2022-11-15T07:33:23;8.40;99.90
28336;DHT22;15592;53.656;7.276;2022-11-15T07:35:49;8.40;99.90
28336;DHT22;15592;53.656;7.276;2022-11-15T07:38:15;8.40;99.90
28336;DHT22;15592;53.656;7.276;2022-11-15T07:40:47;8.50;99.90
28336;DHT22;15592;53.656;7.276;2022-11-15T07:43:20;8.50;99.90
28336;DHT22;15592;53.656;7.276;2022-11-15T07:45:51;8.50;99.90
28336;DHT22;15592;53.656;7.276;2022-11-15T07:48:41;8.50;99.90
28336;DHT22;15592;53.656;7.276;2022-11-15T07:51:07;8.50;99.90
28336;DHT22;15592;53.656;7.276;2022-11-15T07:53:47;8.60;99.90
28336;DHT22;15592;53.656;7.276;2022-11-15T07:56:15;8.60;99.90
28336;DHT22;15592;53.656;7.276;2022-11-15T07:58:45;8.60;99.90
28336;DHT22;15592;53.656;7.276;2022-11-15T08:01:16;8.60;99.90
28336;DHT22;15592;53.656;7.276;2022-11-15T08:03:54;8.60;99.90
28336;DHT22;15592;53.656;7.276;2022-11-15T08:06:20;8.70;99.90
28336;DHT22;15592;53.656;7.276;2022-11-15T08:08:46;8.70;99.90
28336;DHT22;15592;53.656;7.276;2022-11-15T08:11:34;8.70;99.90
28336;DHT22;15592;53.656;7.276;2022-11-15T08:14:09;8.80;99.90
28336;DHT22;15592;53.656;7.276;2022-11-15T08:16:35;8.80;99.90
28336;DHT22;15592;53.656;7.276;2022-11-15T08:19:00;8.90;99.90
28336;DHT22;15592;53.656;7.276;2022-11-15T08:24:27;9.00;99.90
28336;DHT22;15592;53.656;7.276;2022-11-15T08:26:56;9.10;99.90
28336;DHT22;15592;53.656;7.276;2022-11-15T08:29:33;9.10;99.90
28336;DHT22;15592;53.656;7.276;2022-11-15T08:32:02;9.10;99.90
28336;DHT22;15592;53.656;7.276;2022-11-15T08:34:27;9.20;99.90
28336;DHT22;15592;53.656;7.276;2022-11-15T08:36:53;9.20;99.90
28336;DHT22;15592;53.656;7.276;2022-11-15T08:39:19;9.30;99.90
28336;DHT22;15592;53.656;7.276;2022-11-15T08:41:44;9.40;99.90
28336;DHT22;15592;53.656;7.276;2022-11-15T08:44:10;9.50;99.90
28336;DHT22;15592;53.656;7.276;2022-11-15T08:46:35;9.50;99.90
28336;DHT22;15592;53.656;7.276;2022-11-15T08:49:01;9.60;99.90
28336;DHT22;15592;53.656;7.276;2022-11-15T08:51:27;9.60;99.90
28336;DHT22;15592;53.656;7.276;2022-11-15T08:53:52;9.70;99.90
28336;DHT22;15592;53.656;7.276;2022-11-15T08:56:18;9.80;99.90
28336;DHT22;15592;53.656;7.276;2022-11-15T08:58:43;9.70;99.90
28336;DHT22;15592;53.656;7.276;2022-11-15T09:01:16;9.80;99.90
28336;DHT22;15592;53.656;7.276;2022-11-15T09:03:42;9.90;99.90
28336;DHT22;15592;53.656;7.276;2022-11-15T09:06:07;9.90;99.90
28336;DHT22;15592;53.656;7.276;2022-11-15T09:08:34;9.90;99.90
28336;DHT22;15592;53.656;7.276;2022-11-15T09:11:04;9.90;99.90
28336;DHT22;15592;53.656;7.276;2022-11-15T09:13:30;9.90;99.90
28336;DHT22;15592;53.656;7.276;2022-11-15T09:15:59;9.90;99.90
28336;DHT22;15592;53.656;7.276;2022-11-15T09:18:26;10.00;99.90
28336;DHT22;15592;53.656;7.276;2022-11-15T09:20:58;10.10;99.90
28336;DHT22;15592;53.656;7.276;2022-11-15T09:23:25;10.10;99.90
28336;DHT22;15592;53.656;7.276;2022-11-15T09:25:51;10.20;99.90
28336;DHT22;15592;53.656;7.276;2022-11-15T09:28:17;10.20;99.90
28336;DHT22;15592;53.656;7.276;2022-11-15T09:30:43;10.30;99.90
28336;DHT22;15592;53.656;7.276;2022-11-15T09:33:10;10.30;99.90
28336;DHT22;15592;53.656;7.276;2022-11-15T09:35:36;10.40;99.90
28336;DHT22;15592;53.656;7.276;2022-11-15T09:38:02;10.40;99.90
28336;DHT22;15592;53.656;7.276;2022-11-15T09:40:30;10.50;99.90
28336;DHT22;15592;53.656;7.276;2022-11-15T09:46:15;10.60;99.90
28336;DHT22;15592;53.656;7.276;2022-11-15T09:48:57;10.60;99.90
28336;DHT22;15592;53.656;7.276;2022-11-15T09:51:36;10.70;99.90
28336;DHT22;15592;53.656;7.276;2022-11-15T09:54:34;10.70;99.90
28336;DHT22;15592;53.656;7.276;2022-11-15T10:00:35;10.90;99.90
28336;DHT22;15592;53.656;7.276;2022-11-15T10:03:30;11.10;99.90
28336;DHT22;15592;53.656;7.276;2022-11-15T10:06:01;11.10;99.90
28336;DHT22;15592;53.656;7.276;2022-11-15T10:11:26;11.00;99.90
28336;DHT22;15592;53.656;7.276;2022-11-15T10:14:00;11.00;99.90
28336;DHT22;15592;53.656;7.276;2022-11-15T10:19:52;11.10;99.90
28336;DHT22;15592;53.656;7.276;2022-11-15T10:27:29;11.10;99.90
28336;DHT22;15592;53.656;7.276;2022-11-15T10:29:55;11.10;99.90
28336;DHT22;15592;53.656;7.276;2022-11-15T10:32:21;11.00;99.90
28336;DHT22;15592;53.656;7.276;2022-11-15T10:34:48;11.10;99.90
28336;DHT22;15592;53.656;7.276;2022-11-15T10:37:15;11.10;99.90
28336;DHT22;15592;53.656;7.276;2022-11-15T10:40:12;11.10;99.90
28336;DHT22;15592;53.656;7.276;2022-11-15T10:42:39;11.10;99.90
28336;DHT22;15592;53.656;7.276;2022-11-15T10:45:23;11.10;99.90
28336;DHT22;15592;53.656;7.276;2022-11-15T10:47:49;11.10;99.90
28336;DHT22;15592;53.656;7.276;2022-11-15T10:50:30;11.20;99.90
28336;DHT22;15592;53.656;7.276;2022-11-15T10:52:56;11.20;99.90
28336;DHT22;15592;53.656;7.276;2022-11-15T10:55:26;11.20;99.90
28336;DHT22;15592;53.656;7.276;2022-11-15T11:00:47;11.20;99.90
28336;DHT22;15592;53.656;7.276;2022-11-15T11:03:57;11.20;99.90
28336;DHT22;15592;53.656;7.276;2022-11-15T11:06:24;11.20;99.90
28336;DHT22;15592;53.656;7.276;2022-11-15T11:11:24;11.20;99.90
28336;DHT22;15592;53.656;7.276;2022-11-15T11:13:50;11.20;99.90
28336;DHT22;15592;53.656;7.276;2022-11-15T11:16:44;11.20;99.90
28336;DHT22;15592;53.656;7.276;2022-11-15T11:24:52;11.20;99.90
28336;DHT22;15592;53.656;7.276;2022-11-15T11:30:32;11.20;99.90
28336;DHT22;15592;53.656;7.276;2022-11-15T11:33:20;11.20;99.90
28336;DHT22;15592;53.656;7.276;2022-11-15T11:38:47;11.20;99.90
28336;DHT22;15592;53.656;7.276;2022-11-15T11:47:03;11.20;99.90
28336;DHT22;15592;53.656;7.276;2022-11-15T12:02:42;11.20;99.90
28336;DHT22;15592;53.656;7.276;2022-11-15T12:05:28;11.20;99.90
28336;DHT22;15592;53.656;7.276;2022-11-15T12:08:48;11.20;99.90
28336;DHT22;15592;53.656;7.276;2022-11-15T12:14:03;11.20;99.90
28336;DHT22;15592;53.656;7.276;2022-11-15T12:16:31;11.20;99.90
28336;DHT22;15592;53.656;7.276;2022-11-15T12:19:04;11.30;99.90
28336;DHT22;15592;53.656;7.276;2022-11-15T12:22:06;11.30;99.90
28336;DHT22;15592;53.656;7.276;2022-11-15T12:27:53;11.40;99.90
28336;DHT22;15592;53.656;7.276;2022-11-15T12:30:29;11.40;99.90
28336;DHT22;15592;53.656;7.276;2022-11-15T12:33:03;11.40;99.90
28336;DHT22;15592;53.656;7.276;2022-11-15T12:35:39;11.50;99.90
28336;DHT22;15592;53.656;7.276;2022-11-15T12:38:22;11.50;99.90
28336;DHT22;15592;53.656;7.276;2022-11-15T12:47:26;11.70;99.90
28336;DHT22;15592;53.656;7.276;2022-11-15T12:49:52;11.70;99.90
28336;DHT22;15592;53.656;7.276;2022-11-15T12:52:18;11.70;99.90
28336;DHT22;15592;53.656;7.276;2022-11-15T12:58:28;11.70;99.90
28336;DHT22;15592;53.656;7.276;2022-11-15T13:01:06;11.70;99.90
28336;DHT22;15592;53.656;7.276;2022-11-15T13:03:32;11.70;99.90
28336;DHT22;15592;53.656;7.276;2022-11-15T13:06:02;11.70;99.90
28336;DHT22;15592;53.656;7.276;2022-11-15T13:08:42;11.70;99.90
28336;DHT22;15592;53.656;7.276;2022-11-15T13:17:29;11.80;99.90
28336;DHT22;15592;53.656;7.276;2022-11-15T13:27:22;11.70;99.90
28336;DHT22;15592;53.656;7.276;2022-11-15T13:29:47;11.80;99.90
28336;DHT22;15592;53.656;7.276;2022-11-15T13:32:15;11.80;99.90
28336;DHT22;15592;53.656;7.276;2022-11-15T13:34:49;11.80;99.90
28336;DHT22;15592;53.656;7.276;2022-11-15T13:39:47;11.80;99.90
28336;DHT22;15592;53.656;7.276;2022-11-15T13:42:20;11.70;99.90
28336;DHT22;15592;53.656;7.276;2022-11-15T13:45:03;11.70;99.90
28336;DHT22;15592;53.656;7.276;2022-11-15T13:47:57;11.60;99.90
28336;DHT22;15592;53.656;7.276;2022-11-15T13:50:30;11.60;99.90
28336;DHT22;15592;53.656;7.276;2022-11-15T13:53:26;11.50;99.90
28336;DHT22;15592;53.656;7.276;2022-11-15T13:55:56;11.50;99.90
28336;DHT22;15592;53.656;7.276;2022-11-15T13:58:28;11.40;99.90
28336;DHT22;15592;53.656;7.276;2022-11-15T14:04:28;11.40;99.90
28336;DHT22;15592;53.656;7.276;2022-11-15T14:06:57;11.40;99.90
28336;DHT22;15592;53.656;7.276;2022-11-15T14:13:28;11.40;99.90
28336;DHT22;15592;53.656;7.276;2022-11-15T14:16:58;11.40;99.90
28336;DHT22;15592;53.656;7.276;2022-11-15T14:22:22;11.40;99.90
28336;DHT22;15592;53.656;7.276;2022-11-15T14:27:34;11.40;99.90
28336;DHT22;15592;53.656;7.276;2022-11-15T14:30:00;11.50;99.90
28336;DHT22;15592;53.656;7.276;2022-11-15T14:32:43;11.50;99.90
28336;DHT22;15592;53.656;7.276;2022-11-15T14:35:16;11.50;99.90
28336;DHT22;15592;53.656;7.276;2022-11-15T14:37:42;11.50;99.90
28336;DHT22;15592;53.656;7.276;2022-11-15T14:40:11;11.50;99.90
28336;DHT22;15592;53.656;7.276;2022-11-15T14:42:37;11.50;99.90
28336;DHT22;15592;53.656;7.276;2022-11-15T14:45:12;11.50;99.90
28336;DHT22;15592;53.656;7.276;2022-11-15T14:47:37;11.50;99.90
28336;DHT22;15592;53.656;7.276;2022-11-15T14:50:03;11.50;99.90
28336;DHT22;15592;53.656;7.276;2022-11-15T14:52:31;11.50;99.90
28336;DHT22;15592;53.656;7.276;2022-11-15T14:55:00;11.50;99.90
28336;DHT22;15592;53.656;7.276;2022-11-15T14:57:28;11.40;99.90
28336;DHT22;15592;53.656;7.276;2022-11-15T14:59:53;11.40;99.90
28336;DHT22;15592;53.656;7.276;2022-11-15T15:02:24;11.40;99.90
28336;DHT22;15592;53.656;7.276;2022-11-15T15:04:50;11.30;99.90
28336;DHT22;15592;53.656;7.276;2022-11-15T15:07:17;11.20;99.90
28336;DHT22;15592;53.656;7.276;2022-11-15T15:09:43;11.10;99.90
28336;DHT22;15592;53.656;7.276;2022-11-15T15:12:20;11.10;99.90
28336;DHT22;15592;53.656;7.276;2022-11-15T15:14:47;11.00;99.90
28336;DHT22;15592;53.656;7.276;2022-11-15T15:17:13;10.90;99.90
28336;DHT22;15592;53.656;7.276;2022-11-15T15:19:39;10.80;99.90
28336;DHT22;15592;53.656;7.276;2022-11-15T15:22:05;10.80;99.90
28336;DHT22;15592;53.656;7.276;2022-11-15T15:24:31;10.70;99.90
28336;DHT22;15592;53.656;7.276;2022-11-15T15:26:57;10.70;99.90
28336;DHT22;15592;53.656;7.276;2022-11-15T15:29:22;10.60;99.90
28336;DHT22;15592;53.656;7.276;2022-11-15T15:31:48;10.50;99.90
28336;DHT22;15592;53.656;7.276;2022-11-15T15:34:14;10.40;99.90
28336;DHT22;15592;53.656;7.276;2022-11-15T15:36:39;10.40;99.90
28336;DHT22;15592;53.656;7.276;2022-11-15T15:39:07;10.30;99.90
28336;DHT22;15592;53.656;7.276;2022-11-15T15:41:37;10.20;99.90
28336;DHT22;15592;53.656;7.276;2022-11-15T15:44:03;10.20;99.90
28336;DHT22;15592;53.656;7.276;2022-11-15T15:46:28;10.10;99.90
28336;DHT22;15592;53.656;7.276;2022-11-15T15:48:59;10.10;99.90
28336;DHT22;15592;53.656;7.276;2022-11-15T15:51:26;10.00;99.90
28336;DHT22;15592;53.656;7.276;2022-11-15T15:53:52;10.00;99.90
28336;DHT22;15592;53.656;7.276;2022-11-15T15:56:22;9.90;99.90
28336;DHT22;15592;53.656;7.276;2022-11-15T15:58:48;9.90;99.90
28336;DHT22;15592;53.656;7.276;2022-11-15T16:01:13;9.80;99.90
28336;DHT22;15592;53.656;7.276;2022-11-15T16:03:39;9.70;99.90
28336;DHT22;15592;53.656;7.276;2022-11-15T16:06:04;9.70;99.90
28336;DHT22;15592;53.656;7.276;2022-11-15T16:08:30;9.70;99.90
28336;DHT22;15592;53.656;7.276;2022-11-15T16:10:56;9.60;99.90
28336;DHT22;15592;53.656;7.276;2022-11-15T16:13:21;9.60;99.90
28336;DHT22;15592;53.656;7.276;2022-11-15T16:15:50;9.60;99.90
28336;DHT22;15592;53.656;7.276;2022-11-15T16:18:18;9.50;99.90
28336;DHT22;15592;53.656;7.276;2022-11-15T16:20:46;9.50;99.90
28336;DHT22;15592;53.656;7.276;2022-11-15T16:23:16;9.50;99.90
28336;DHT22;15592;53.656;7.276;2022-11-15T16:25:51;9.50;99.90
28336;DHT22;15592;53.656;7.276;2022-11-15T16:28:29;9.50;99.90
28336;DHT22;15592;53.656;7.276;2022-11-15T16:31:07;9.50;99.90
28336;DHT22;15592;53.656;7.276;2022-11-15T16:33:33;9.50;99.90
28336;DHT22;15592;53.656;7.276;2022-11-15T16:35:59;9.50;99.90
28336;DHT22;15592;53.656;7.276;2022-11-15T16:38:24;9.40;99.90
28336;DHT22;15592;53.656;7.276;2022-11-15T16:40:50;9.40;99.90
28336;DHT22;15592;53.656;7.276;2022-11-15T16:43:16;9.40;99.90
28336;DHT22;15592;53.656;7.276;2022-11-15T16:45:41;9.40;99.90
28336;DHT22;15592;53.656;7.276;2022-11-15T16:48:22;9.40;99.90
28336;DHT22;15592;53.656;7.276;2022-11-15T16:50:48;9.40;99.90
28336;DHT22;15592;53.656;7.276;2022-11-15T16:53:13;9.50;99.90
28336;DHT22;15592;53.656;7.276;2022-11-15T16:55:39;9.50;99.90
28336;DHT22;15592;53.656;7.276;2022-11-15T16:58:05;9.50;99.90
28336;DHT22;15592;53.656;7.276;2022-11-15T17:00:30;9.50;99.90
28336;DHT22;15592;53.656;7.276;2022-11-15T17:02:56;9.50;99.90
28336;DHT22;15592;53.656;7.276;2022-11-15T17:05:23;9.50;99.90
28336;DHT22;15592;53.656;7.276;2022-11-15T17:07:50;9.50;99.90
28336;DHT22;15592;53.656;7.276;2022-11-15T17:10:23;9.50;99.90
28336;DHT22;15592;53.656;7.276;2022-11-15T17:12:50;9.50;99.90
28336;DHT22;15592;53.656;7.276;2022-11-15T17:15:17;9.60;99.90
28336;DHT22;15592;53.656;7.276;2022-11-15T17:17:43;9.60;99.90
28336;DHT22;15592;53.656;7.276;2022-11-15T17:20:16;9.60;99.90
28336;DHT22;15592;53.656;7.276;2022-11-15T17:22:42;9.60;99.90
28336;DHT22;15592;53.656;7.276;2022-11-15T17:25:09;9.60;99.90
28336;DHT22;15592;53.656;7.276;2022-11-15T17:27:34;9.60;99.90
28336;DHT22;15592;53.656;7.276;2022-11-15T17:30:00;9.60;99.90
28336;DHT22;15592;53.656;7.276;2022-11-15T17:32:26;9.60;99.90
28336;DHT22;15592;53.656;7.276;2022-11-15T17:34:51;9.60;99.90
28336;DHT22;15592;53.656;7.276;2022-11-15T17:37:17;9.60;99.90
28336;DHT22;15592;53.656;7.276;2022-11-15T17:39:42;9.50;99.90
28336;DHT22;15592;53.656;7.276;2022-11-15T17:42:08;9.50;99.90
28336;DHT22;15592;53.656;7.276;2022-11-15T17:44:34;9.50;99.90
28336;DHT22;15592;53.656;7.276;2022-11-15T17:46:59;9.40;99.90
28336;DHT22;15592;53.656;7.276;2022-11-15T17:49:25;9.40;99.90
28336;DHT22;15592;53.656;7.276;2022-11-15T17:51:52;9.40;99.90
28336;DHT22;15592;53.656;7.276;2022-11-15T17:54:17;9.40;99.90
28336;DHT22;15592;53.656;7.276;2022-11-15T17:56:43;9.30;99.90
28336;DHT22;15592;53.656;7.276;2022-11-15T17:59:09;9.30;99.90
28336;DHT22;15592;53.656;7.276;2022-11-15T18:01:36;9.40;99.90
28336;DHT22;15592;53.656;7.276;2022-11-15T18:04:06;9.30;99.90
28336;DHT22;15592;53.656;7.276;2022-11-15T18:06:33;9.40;99.90
28336;DHT22;15592;53.656;7.276;2022-11-15T18:08:59;9.30;99.90
28336;DHT22;15592;53.656;7.276;2022-11-15T18:11:28;9.40;99.90
28336;DHT22;15592;53.656;7.276;2022-11-15T18:13:56;9.40;99.90
28336;DHT22;15592;53.656;7.276;2022-11-15T18:16:24;9.40;99.90
28336;DHT22;15592;53.656;7.276;2022-11-15T18:18:51;9.50;99.90
28336;DHT22;15592;53.656;7.276;2022-11-15T18:21:19;9.50;99.90
28336;DHT22;15592;53.656;7.276;2022-11-15T18:23:47;9.50;99.90
28336;DHT22;15592;53.656;7.276;2022-11-15T18:26:15;9.50;99.90